sensor_id;sensor_type;location;lat;lon;timestamp;pressure;altitude;pressure_sealevel;temperature;humidity
31337;BME280;22846;42.654;23.314;2023-02-02T00:00:45;94519.66;;;25.50;50.47
31337;BME280;22846;42.654;23.314;2023-02-02T00:03:10;94518.13;;;25.49;50.31
31337;BME280;22846;42.654;23.314;2023-02-02T00:05:36;94523.94;;;25.51;50.27
31337;BME280;22846;42.654;23.314;2023-02-02T00:08:02;94523.94;;;25.51;50.16
31337;BME280;22846;42.654;23.314;2023-02-02T00:10:27;94521.19;;;25.51;50.53
31337;BME280;22846;42.654;23.314;2023-02-02T00:12:53;94518.44;;;25.51;50.43
31337;BME280;22846;42.654;23.314;2023-02-02T00:15:22;94510.25;;;25.51;49.98
31337;BME280;22846;42.654;23.314;2023-02-02T00:17:48;94513.72;;;25.51;50.37
31337;BME280;22846;42.654;23.314;2023-02-02T00:20:13;94515.72;;;25.51;50.53
31337;BME280;22846;42.654;23.314;2023-02-02T00:22:39;94502.16;;;25.47;50.18
31337;BME280;22846;42.654;23.314;2023-02-02T00:25:05;94504.31;;;25.52;49.93
31337;BME280;22846;42.654;23.314;2023-02-02T00:27:31;94512.06;;;25.54;50.35
31337;BME280;22846;42.654;23.314;2023-02-02T00:29:56;94510.84;;;25.55;50.33
31337;BME280;22846;42.654;23.314;2023-02-02T00:32:22;94514.81;;;25.54;50.17
31337;BME280;22846;42.654;23.314;2023-02-02T00:34:47;94518.31;;;25.54;50.03
31337;BME280;22846;42.654;23.314;2023-02-02T00:37:12;94526.06;;;25.56;50.15
31337;BME280;22846;42.654;23.314;2023-02-02T00:39:38;94528.81;;;25.56;50.09
31337;BME280;22846;42.654;23.314;2023-02-02T00:42:03;94526.84;;;25.56;49.99
31337;BME280;22846;42.654;23.314;2023-02-02T00:44:29;94530.34;;;25.57;50.26
31337;BME280;22846;42.654;23.314;2023-02-02T00:47:12;94532.31;;;25.56;50.07
31337;BME280;22846;42.654;23.314;2023-02-02T00:49:38;94536.59;;;25.57;49.97
31337;BME280;22846;42.654;23.314;2023-02-02T00:52:03;94529.59;;;25.56;49.93
31337;BME280;22846;42.654;23.314;2023-02-02T00:54:29;94537.03;;;25.56;49.95
31337;BME280;22846;42.654;23.314;2023-02-02T00:56:55;94537.78;;;25.56;50.06
31337;BME280;22846;42.654;23.314;2023-02-02T00:59:20;94524.88;;;25.57;50.04
31337;BME280;22846;42.654;23.314;2023-02-02T01:01:46;94533.84;;;25.57;49.78
31337;BME280;22846;42.654;23.314;2023-02-02T01:04:11;94524.88;;;25.57;50.23
31337;BME280;22846;42.654;23.314;2023-02-02T01:06:37;94511.19;;;25.57;50.32
31337;BME280;22846;42.654;23.314;2023-02-02T01:09:02;94513.16;;;25.56;49.87
31337;BME280;22846;42.654;23.314;2023-02-02T01:11:28;94509.22;;;25.57;50.15
31337;BME280;22846;42.654;23.314;2023-02-02T01:13:55;94505.72;;;25.57;50.17
31337;BME280;22846;42.654;23.314;2023-02-02T01:16:21;94503.75;;;25.57;50.05
31337;BME280;22846;42.654;23.314;2023-02-02T01:18:47;94498.28;;;25.57;50.40
31337;BME280;22846;42.654;23.314;2023-02-02T01:21:12;94497.50;;;25.57;50.07
31337;BME280;22846;42.654;23.314;2023-02-02T01:23:39;94493.56;;;25.58;49.96
31337;BME280;22846;42.654;23.314;2023-02-02T01:26:07;94496.28;;;25.58;50.26
31337;BME280;22846;42.654;23.314;2023-02-02T01:28:33;94499.03;;;25.58;50.30
31337;BME280;22846;42.654;23.314;2023-02-02T01:31:08;94491.28;;;25.56;50.36
31337;BME280;22846;42.654;23.314;2023-02-02T01:33:33;94487.44;;;25.54;50.31
31337;BME280;22846;42.654;23.314;2023-02-02T01:36:03;94488.53;;;25.56;50.15
31337;BME280;22846;42.654;23.314;2023-02-02T01:38:29;94487.34;;;25.57;49.99
31337;BME280;22846;42.654;23.314;2023-02-02T01:40:55;94492.81;;;25.57;49.90
31337;BME280;22846;42.654;23.314;2023-02-02T01:43:22;94482.59;;;25.58;50.14
31337;BME280;22846;42.654;23.314;2023-02-02T01:45:48;94482.59;;;25.58;49.87
31337;BME280;22846;42.654;23.314;2023-02-02T01:48:14;94479.56;;;25.56;50.14
31337;BME280;22846;42.654;23.314;2023-02-02T01:50:40;94468.47;;;25.59;50.30
31337;BME280;22846;42.654;23.314;2023-02-02T01:53:06;94457.34;;;25.54;49.91
31337;BME280;22846;42.654;23.314;2023-02-02T01:55:34;94456.78;;;25.59;50.18
31337;BME280;22846;42.654;23.314;2023-02-02T01:58:17;94460.25;;;25.59;49.80
31337;BME280;22846;42.654;23.314;2023-02-02T02:00:44;94458.31;;;25.60;50.17
31337;BME280;22846;42.654;23.314;2023-02-02T02:03:12;94457.22;;;25.57;49.72
31337;BME280;22846;42.654;23.314;2023-02-02T02:05:44;94460.25;;;25.59;49.95
31337;BME280;22846;42.654;23.314;2023-02-02T02:08:24;94446.56;;;25.59;50.04
31337;BME280;22846;42.654;23.314;2023-02-02T02:10:51;94451.63;;;25.61;49.71
31337;BME280;22846;42.654;23.314;2023-02-02T02:13:17;94452.06;;;25.59;49.65
31337;BME280;22846;42.654;23.314;2023-02-02T02:15:56;94463.78;;;25.60;50.12
31337;BME280;22846;42.654;23.314;2023-02-02T02:19:08;94459.06;;;25.60;50.04
31337;BME280;22846;42.654;23.314;2023-02-02T02:21:46;94459.84;;;25.61;49.68
31337;BME280;22846;42.654;23.314;2023-02-02T02:28:33;94459.06;;;25.60;49.80
31337;BME280;22846;42.654;23.314;2023-02-02T02:39:19;94454.34;;;25.61;49.76
31337;BME280;22846;42.654;23.314;2023-02-02T02:41:54;94462.56;;;25.61;49.59
31337;BME280;22846;42.654;23.314;2023-02-02T02:44:22;94462.84;;;25.62;49.71
31337;BME280;22846;42.654;23.314;2023-02-02T02:46:49;94473.06;;;25.62;49.78
31337;BME280;22846;42.654;23.314;2023-02-02T02:49:15;94468.34;;;25.62;49.65
31337;BME280;22846;42.654;23.314;2023-02-02T02:54:11;94459.38;;;25.62;49.58
31337;BME280;22846;42.654;23.314;2023-02-02T02:59:35;94461.34;;;25.62;49.72
31337;BME280;22846;42.654;23.314;2023-02-02T03:07:25;94448.25;;;25.57;49.18
31337;BME280;22846;42.654;23.314;2023-02-02T03:09:54;94452.50;;;25.58;49.59
31337;BME280;22846;42.654;23.314;2023-02-02T03:12:22;94453.91;;;25.62;49.73
31337;BME280;22846;42.654;23.314;2023-02-02T03:14:47;94453.91;;;25.62;49.34
31337;BME280;22846;42.654;23.314;2023-02-02T03:17:13;94446.44;;;25.62;49.37
31337;BME280;22846;42.654;23.314;2023-02-02T03:19:38;94458.91;;;25.63;49.40
31337;BME280;22846;42.654;23.314;2023-02-02T03:22:03;94445.22;;;25.63;49.29
31337;BME280;22846;42.654;23.314;2023-02-02T03:24:29;94452.69;;;25.63;49.22
31337;BME280;22846;42.654;23.314;2023-02-02T03:26:54;94445.22;;;25.63;49.28
31337;BME280;22846;42.654;23.314;2023-02-02T03:29:20;94441.28;;;25.64;49.20
31337;BME280;22846;42.654;23.314;2023-02-02T03:31:46;94442.50;;;25.63;49.11
31337;BME280;22846;42.654;23.314;2023-02-02T03:34:11;94451.47;;;25.64;49.21
31337;BME280;22846;42.654;23.314;2023-02-02T03:36:37;94447.22;;;25.63;49.22
31337;BME280;22846;42.654;23.314;2023-02-02T03:39:02;94441.28;;;25.64;49.39
31337;BME280;22846;42.654;23.314;2023-02-02T03:41:28;94439.75;;;25.63;48.95
31337;BME280;22846;42.654;23.314;2023-02-02T03:43:53;94454.97;;;25.64;49.17
31337;BME280;22846;42.654;23.314;2023-02-02T03:46:18;94454.97;;;25.64;49.15
31337;BME280;22846;42.654;23.314;2023-02-02T03:48:44;94445.56;;;25.65;49.29
31337;BME280;22846;42.654;23.314;2023-02-02T03:51:11;94449.50;;;25.64;49.05
31337;BME280;22846;42.654;23.314;2023-02-02T03:53:38;94462.75;;;25.66;49.11
31337;BME280;22846;42.654;23.314;2023-02-02T03:56:04;94454.22;;;25.64;49.30
31337;BME280;22846;42.654;23.314;2023-02-02T03:58:30;94453.00;;;25.65;49.03
31337;BME280;22846;42.654;23.314;2023-02-02T04:01:03;94457.72;;;25.64;49.09
31337;BME280;22846;42.654;23.314;2023-02-02T04:03:29;94456.50;;;25.65;49.04
31337;BME280;22846;42.654;23.314;2023-02-02T04:05:54;94460.00;;;25.66;49.24
31337;BME280;22846;42.654;23.314;2023-02-02T04:08:20;94467.00;;;25.67;48.83
31337;BME280;22846;42.654;23.314;2023-02-02T04:10:45;94472.47;;;25.67;49.10
31337;BME280;22846;42.654;23.314;2023-02-02T04:13:11;94470.97;;;25.66;49.18
31337;BME280;22846;42.654;23.314;2023-02-02T04:15:36;94474.44;;;25.66;49.01
31337;BME280;22846;42.654;23.314;2023-02-02T04:18:02;94477.19;;;25.66;48.85
31337;BME280;22846;42.654;23.314;2023-02-02T04:20:27;94470.50;;;25.67;49.01
31337;BME280;22846;42.654;23.314;2023-02-02T04:22:53;94479.16;;;25.66;49.13
31337;BME280;22846;42.654;23.314;2023-02-02T04:25:19;94483.88;;;25.65;48.84
31337;BME280;22846;42.654;23.314;2023-02-02T04:27:44;94485.84;;;25.65;48.88
31337;BME280;22846;42.654;23.314;2023-02-02T04:30:10;94480.66;;;25.67;49.02
31337;BME280;22846;42.654;23.314;2023-02-02T04:32:36;94478.72;;;25.67;48.82
31337;BME280;22846;42.654;23.314;2023-02-02T04:35:01;94473.19;;;25.59;49.09
31337;BME280;22846;42.654;23.314;2023-02-02T04:37:29;94477.19;;;25.66;49.01
31337;BME280;22846;42.654;23.314;2023-02-02T04:39:55;94470.19;;;25.65;48.88
31337;BME280;22846;42.654;23.314;2023-02-02T04:42:20;94472.16;;;25.65;48.86
31337;BME280;22846;42.654;23.314;2023-02-02T04:44:45;94481.13;;;25.65;48.69
31337;BME280;22846;42.654;23.314;2023-02-02T04:47:11;94482.34;;;25.64;48.58
31337;BME280;22846;42.654;23.314;2023-02-02T04:49:36;94483.13;;;25.65;48.59
31337;BME280;22846;42.654;23.314;2023-02-02T04:52:02;94481.91;;;25.66;48.60
31337;BME280;22846;42.654;23.314;2023-02-02T04:54:27;94479.91;;;25.66;48.57
31337;BME280;22846;42.654;23.314;2023-02-02T04:56:53;94477.94;;;25.67;48.64
31337;BME280;22846;42.654;23.314;2023-02-02T04:59:18;94482.66;;;25.66;48.44
31337;BME280;22846;42.654;23.314;2023-02-02T05:01:44;94481.44;;;25.67;48.50
31337;BME280;22846;42.654;23.314;2023-02-02T05:04:10;94486.94;;;25.67;48.46
31337;BME280;22846;42.654;23.314;2023-02-02T05:06:35;94484.94;;;25.68;48.69
31337;BME280;22846;42.654;23.314;2023-02-02T05:09:01;94486.94;;;25.67;48.54
31337;BME280;22846;42.654;23.314;2023-02-02T05:11:26;94490.41;;;25.68;48.42
31337;BME280;22846;42.654;23.314;2023-02-02T05:13:53;94479.47;;;25.68;48.74
31337;BME280;22846;42.654;23.314;2023-02-02T05:16:20;94478.72;;;25.67;48.63
31337;BME280;22846;42.654;23.314;2023-02-02T05:18:54;94481.44;;;25.67;48.43
31337;BME280;22846;42.654;23.314;2023-02-02T05:21:21;94486.94;;;25.67;48.43
31337;BME280;22846;42.654;23.314;2023-02-02T05:23:46;94476.72;;;25.68;48.64
31337;BME280;22846;42.654;23.314;2023-02-02T05:26:15;94474.78;;;25.68;48.26
31337;BME280;22846;42.654;23.314;2023-02-02T05:28:41;94477.50;;;25.68;48.11
31337;BME280;22846;42.654;23.314;2023-02-02T05:31:07;94460.31;;;25.68;48.47
31337;BME280;22846;42.654;23.314;2023-02-02T05:33:33;94444.91;;;25.53;48.40
31337;BME280;22846;42.654;23.314;2023-02-02T05:35:59;94462.63;;;25.69;48.23
31337;BME280;22846;42.654;23.314;2023-02-02T05:38:24;94469.28;;;25.68;48.18
31337;BME280;22846;42.654;23.314;2023-02-02T05:40:49;94461.50;;;25.67;48.18
31337;BME280;22846;42.654;23.314;2023-02-02T05:43:15;94492.22;;;25.62;47.63
31337;BME280;22846;42.654;23.314;2023-02-02T05:45:40;94487.91;;;25.52;48.16
31337;BME280;22846;42.654;23.314;2023-02-02T05:48:06;94489.50;;;25.41;48.16
31337;BME280;22846;42.654;23.314;2023-02-02T05:50:31;94486.06;;;25.28;48.35
31337;BME280;22846;42.654;23.314;2023-02-02T05:52:58;94496.31;;;25.15;48.80
31337;BME280;22846;42.654;23.314;2023-02-02T05:55:23;94494.69;;;25.05;49.69
31337;BME280;22846;42.654;23.314;2023-02-02T05:57:49;94491.88;;;24.96;50.17
31337;BME280;22846;42.654;23.314;2023-02-02T06:00:15;94496.06;;;24.88;50.36
31337;BME280;22846;42.654;23.314;2023-02-02T06:02:40;94488.13;;;24.81;50.03
31337;BME280;22846;42.654;23.314;2023-02-02T06:05:06;94495.38;;;24.75;50.20
31337;BME280;22846;42.654;23.314;2023-02-02T06:07:31;94492.84;;;24.68;49.74
31337;BME280;22846;42.654;23.314;2023-02-02T06:09:57;94494.19;;;24.64;50.17
31337;BME280;22846;42.654;23.314;2023-02-02T06:12:22;94505.78;;;24.55;49.94
31337;BME280;22846;42.654;23.314;2023-02-02T06:14:48;94499.56;;;24.55;49.86
31337;BME280;22846;42.654;23.314;2023-02-02T06:17:13;94489.94;;;24.50;49.79
31337;BME280;22846;42.654;23.314;2023-02-02T06:19:38;94500.25;;;24.46;49.57
31337;BME280;22846;42.654;23.314;2023-02-02T06:22:04;94514.78;;;24.43;49.47
31337;BME280;22846;42.654;23.314;2023-02-02T06:24:29;94515.09;;;24.33;50.09
31337;BME280;22846;42.654;23.314;2023-02-02T06:26:55;94521.22;;;24.37;48.87
31337;BME280;22846;42.654;23.314;2023-02-02T06:29:20;94514.34;;;24.32;48.49
31337;BME280;22846;42.654;23.314;2023-02-02T06:31:45;94534.78;;;24.28;46.30
31337;BME280;22846;42.654;23.314;2023-02-02T06:34:11;94532.13;;;24.24;48.78
31337;BME280;22846;42.654;23.314;2023-02-02T06:36:40;94503.53;;;24.04;48.99
31337;BME280;22846;42.654;23.314;2023-02-02T06:39:06;94533.88;;;24.18;48.87
31337;BME280;22846;42.654;23.314;2023-02-02T06:41:35;94538.72;;;24.14;49.08
31337;BME280;22846;42.654;23.314;2023-02-02T06:44:00;94528.31;;;24.09;48.65
31337;BME280;22846;42.654;23.314;2023-02-02T06:46:26;94562.16;;;24.12;48.42
31337;BME280;22846;42.654;23.314;2023-02-02T06:48:51;94541.53;;;24.11;48.87
31337;BME280;22846;42.654;23.314;2023-02-02T06:51:18;94529.22;;;24.06;48.56
31337;BME280;22846;42.654;23.314;2023-02-02T06:53:46;94543.28;;;24.05;48.72
31337;BME280;22846;42.654;23.314;2023-02-02T06:56:12;94546.47;;;24.03;48.52
31337;BME280;22846;42.654;23.314;2023-02-02T06:58:38;94545.38;;;24.01;48.51
31337;BME280;22846;42.654;23.314;2023-02-02T07:01:05;94542.75;;;23.97;48.52
31337;BME280;22846;42.654;23.314;2023-02-02T07:03:31;94553.34;;;23.95;49.03
31337;BME280;22846;42.654;23.314;2023-02-02T07:05:56;94525.47;;;23.76;49.72
31337;BME280;22846;42.654;23.314;2023-02-02T07:08:22;94553.84;;;23.91;48.83
31337;BME280;22846;42.654;23.314;2023-02-02T07:10:47;94546.78;;;23.81;48.69
31337;BME280;22846;42.654;23.314;2023-02-02T07:13:13;94563.78;;;23.85;49.00
31337;BME280;22846;42.654;23.314;2023-02-02T07:15:39;94551.00;;;23.82;48.54
31337;BME280;22846;42.654;23.314;2023-02-02T07:18:04;94534.44;;;23.76;48.84
31337;BME280;22846;42.654;23.314;2023-02-02T07:20:30;94551.56;;;23.77;49.11
31337;BME280;22846;42.654;23.314;2023-02-02T07:22:55;94558.66;;;23.74;48.79
31337;BME280;22846;42.654;23.314;2023-02-02T07:25:22;94562.22;;;23.71;48.82
31337;BME280;22846;42.654;23.314;2023-02-02T07:27:52;94567.78;;;23.68;48.56
31337;BME280;22846;42.654;23.314;2023-02-02T07:30:18;94556.09;;;23.67;48.52
31337;BME280;22846;42.654;23.314;2023-02-02T07:32:47;94568.63;;;23.65;48.56
31337;BME280;22846;42.654;23.314;2023-02-02T07:35:14;94573.34;;;23.64;48.91
31337;BME280;22846;42.654;23.314;2023-02-02T07:37:39;94561.63;;;23.64;48.45
31337;BME280;22846;42.654;23.314;2023-02-02T07:40:05;94570.28;;;23.62;49.01
31337;BME280;22846;42.654;23.314;2023-02-02T07:42:31;94572.25;;;23.62;49.30
31337;BME280;22846;42.654;23.314;2023-02-02T07:44:57;94561.75;;;23.60;48.39
31337;BME280;22846;42.654;23.314;2023-02-02T07:47:23;94563.38;;;23.58;47.99
31337;BME280;22846;42.654;23.314;2023-02-02T07:49:49;94553.66;;;23.57;48.23
31337;BME280;22846;42.654;23.314;2023-02-02T07:52:14;94549.41;;;23.56;48.58
31337;BME280;22846;42.654;23.314;2023-02-02T07:54:40;94552.13;;;23.56;48.26
31337;BME280;22846;42.654;23.314;2023-02-02T07:57:05;94537.75;;;23.55;48.15
31337;BME280;22846;42.654;23.314;2023-02-02T07:59:30;94536.53;;;23.56;48.99
31337;BME280;22846;42.654;23.314;2023-02-02T08:01:56;94541.66;;;23.54;48.79
31337;BME280;22846;42.654;23.314;2023-02-02T08:04:21;94528.47;;;23.53;48.16
31337;BME280;22846;42.654;23.314;2023-02-02T08:06:47;94521.47;;;23.52;48.21
31337;BME280;22846;42.654;23.314;2023-02-02T08:09:12;94525.41;;;23.51;47.91
31337;BME280;22846;42.654;23.314;2023-02-02T08:11:38;94518.75;;;23.52;48.53
31337;BME280;22846;42.654;23.314;2023-02-02T08:14:03;94526.50;;;23.53;48.58
31337;BME280;22846;42.654;23.314;2023-02-02T08:16:31;94519.84;;;23.54;48.46
31337;BME280;22846;42.654;23.314;2023-02-02T08:18:57;94515.06;;;23.58;49.54
31337;BME280;22846;42.654;23.314;2023-02-02T08:21:23;94500.53;;;23.61;49.32
31337;BME280;22846;42.654;23.314;2023-02-02T08:23:49;94502.84;;;23.63;48.54
31337;BME280;22846;42.654;23.314;2023-02-02T08:26:26;94506.00;;;23.61;48.44
31337;BME280;22846;42.654;23.314;2023-02-02T08:29:04;94512.97;;;23.62;48.08
31337;BME280;22846;42.654;23.314;2023-02-02T08:33:57;94504.03;;;23.62;47.98
31337;BME280;22846;42.654;23.314;2023-02-02T08:36:24;94494.66;;;23.63;47.95
31337;BME280;22846;42.654;23.314;2023-02-02T08:38:50;94508.31;;;23.63;48.74
31337;BME280;22846;42.654;23.314;2023-02-02T08:41:18;94516.16;;;23.61;48.18
31337;BME280;22846;42.654;23.314;2023-02-02T08:43:44;94510.69;;;23.61;48.08
31337;BME280;22846;42.654;23.314;2023-02-02T08:46:11;94510.34;;;23.59;48.15
31337;BME280;22846;42.654;23.314;2023-02-02T08:48:37;94510.81;;;23.57;47.89
31337;BME280;22846;42.654;23.314;2023-02-02T08:51:04;94501.84;;;23.57;47.76
31337;BME280;22846;42.654;23.314;2023-02-02T08:53:30;94494.09;;;23.55;47.80
31337;BME280;22846;42.654;23.314;2023-02-02T08:56:02;94491.81;;;23.54;47.85
31337;BME280;22846;42.654;23.314;2023-02-02T08:58:29;94491.72;;;23.57;47.95
31337;BME280;22846;42.654;23.314;2023-02-02T09:03:31;94498.13;;;23.51;47.89
31337;BME280;22846;42.654;23.314;2023-02-02T09:05:56;94497.78;;;23.49;47.53
31337;BME280;22846;42.654;23.314;2023-02-02T09:08:21;94508.38;;;23.47;47.37
31337;BME280;22846;42.654;23.314;2023-02-02T09:13:12;94490.50;;;23.46;47.42
31337;BME280;22846;42.654;23.314;2023-02-02T09:15:37;94481.53;;;23.45;47.39
31337;BME280;22846;42.654;23.314;2023-02-02T09:18:03;94493.63;;;23.44;47.39
31337;BME280;22846;42.654;23.314;2023-02-02T09:20:28;94492.09;;;23.43;47.56
31337;BME280;22846;42.654;23.314;2023-02-02T09:22:55;94506.19;;;23.42;47.55
31337;BME280;22846;42.654;23.314;2023-02-02T09:25:21;94485.56;;;23.41;47.60
31337;BME280;22846;42.654;23.314;2023-02-02T09:27:49;94503.56;;;23.38;47.12
31337;BME280;22846;42.654;23.314;2023-02-02T09:30:14;94504.31;;;23.39;47.39
31337;BME280;22846;42.654;23.314;2023-02-02T09:32:40;94485.22;;;23.39;47.00
31337;BME280;22846;42.654;23.314;2023-02-02T09:35:05;94484.03;;;23.40;47.13
31337;BME280;22846;42.654;23.314;2023-02-02T09:37:33;94482.19;;;23.37;47.25
31337;BME280;22846;42.654;23.314;2023-02-02T09:39:58;94481.31;;;23.40;47.88
31337;BME280;22846;42.654;23.314;2023-02-02T09:45:27;94459.50;;;23.40;47.23
31337;BME280;22846;42.654;23.314;2023-02-02T09:50:44;94473.03;;;23.43;46.96
31337;BME280;22846;42.654;23.314;2023-02-02T09:56:39;94451.75;;;23.51;46.66
31337;BME280;22846;42.654;23.314;2023-02-02T09:59:11;94455.16;;;23.55;47.17
31337;BME280;22846;42.654;23.314;2023-02-02T10:01:41;94451.53;;;23.58;47.63
31337;BME280;22846;42.654;23.314;2023-02-02T10:06:37;94440.09;;;23.63;46.94
31337;BME280;22846;42.654;23.314;2023-02-02T10:11:52;94441.94;;;23.66;46.57
31337;BME280;22846;42.654;23.314;2023-02-02T10:14:30;94441.53;;;23.67;46.51
31337;BME280;22846;42.654;23.314;2023-02-02T10:17:05;94437.56;;;23.68;46.44
31337;BME280;22846;42.654;23.314;2023-02-02T10:19:35;94424.38;;;23.67;46.73
31337;BME280;22846;42.654;23.314;2023-02-02T10:22:12;94428.06;;;23.73;46.77
31337;BME280;22846;42.654;23.314;2023-02-02T10:24:39;94424.97;;;23.74;46.42
31337;BME280;22846;42.654;23.314;2023-02-02T10:27:09;94419.50;;;23.74;46.20
31337;BME280;22846;42.654;23.314;2023-02-02T10:29:58;94419.06;;;23.76;46.47
31337;BME280;22846;42.654;23.314;2023-02-02T10:32:26;94409.34;;;23.75;46.27
31337;BME280;22846;42.654;23.314;2023-02-02T10:46:21;94380.50;;;23.86;46.06
31337;BME280;22846;42.654;23.314;2023-02-02T10:48:48;94368.06;;;23.85;46.19
31337;BME280;22846;42.654;23.314;2023-02-02T10:51:22;94357.59;;;23.84;45.98
31337;BME280;22846;42.654;23.314;2023-02-02T10:53:56;94350.59;;;23.83;46.04
31337;BME280;22846;42.654;23.314;2023-02-02T10:59:11;94325.19;;;23.86;45.76
31337;BME280;22846;42.654;23.314;2023-02-02T11:01:39;94334.91;;;23.87;45.69
31337;BME280;22846;42.654;23.314;2023-02-02T11:04:05;94336.41;;;23.88;45.51
31337;BME280;22846;42.654;23.314;2023-02-02T11:06:49;94344.59;;;23.88;45.66
31337;BME280;22846;42.654;23.314;2023-02-02T11:09:23;94341.88;;;23.88;45.93
31337;BME280;22846;42.654;23.314;2023-02-02T11:11:53;94328.53;;;23.90;45.48
31337;BME280;22846;42.654;23.314;2023-02-02T11:14:44;94326.13;;;23.92;45.53
31337;BME280;22846;42.654;23.314;2023-02-02T11:17:24;94340.09;;;23.93;45.57
31337;BME280;22846;42.654;23.314;2023-02-02T11:19:50;94324.19;;;23.92;45.64
31337;BME280;22846;42.654;23.314;2023-02-02T11:22:42;94331.34;;;23.98;45.83
31337;BME280;22846;42.654;23.314;2023-02-02T11:25:32;94316.94;;;23.98;45.34
31337;BME280;22846;42.654;23.314;2023-02-02T11:28:00;94311.50;;;23.98;45.37
31337;BME280;22846;42.654;23.314;2023-02-02T11:30:36;94295.56;;;23.96;45.52
31337;BME280;22846;42.654;23.314;2023-02-02T11:33:20;94297.41;;;23.99;45.31
31337;BME280;22846;42.654;23.314;2023-02-02T11:36:37;94303.97;;;24.02;45.33
31337;BME280;22846;42.654;23.314;2023-02-02T11:38:43;94305.78;;;24.05;45.50
31337;BME280;22846;42.654;23.314;2023-02-02T11:41:09;94289.84;;;24.03;45.19
31337;BME280;22846;42.654;23.314;2023-02-02T11:43:40;94289.84;;;24.03;45.51
31337;BME280;22846;42.654;23.314;2023-02-02T11:46:23;94300.31;;;24.05;45.23
31337;BME280;22846;42.654;23.314;2023-02-02T11:51:25;94289.28;;;24.08;45.38
31337;BME280;22846;42.654;23.314;2023-02-02T11:54:03;94282.63;;;24.09;45.34
31337;BME280;22846;42.654;23.314;2023-02-02T11:56:33;94265.50;;;24.09;45.42
31337;BME280;22846;42.654;23.314;2023-02-02T11:58:59;94281.75;;;24.12;45.39
31337;BME280;22846;42.654;23.314;2023-02-02T12:01:37;94279.00;;;24.12;45.21
31337;BME280;22846;42.654;23.314;2023-02-02T12:06:37;94272.66;;;24.15;45.30
31337;BME280;22846;42.654;23.314;2023-02-02T12:33:22;94276.28;;;24.12;44.87
31337;BME280;22846;42.654;23.314;2023-02-02T12:39:21;94279.69;;;24.04;44.79
31337;BME280;22846;42.654;23.314;2023-02-02T12:47:10;94279.19;;;23.96;45.77
31337;BME280;22846;42.654;23.314;2023-02-02T13:04:03;94277.38;;;23.81;45.37
31337;BME280;22846;42.654;23.314;2023-02-02T13:09:05;94290.81;;;23.76;45.44
31337;BME280;22846;42.654;23.314;2023-02-02T13:16:35;94282.41;;;23.70;45.06
31337;BME280;22846;42.654;23.314;2023-02-02T13:19:28;94284.78;;;23.68;45.25
31337;BME280;22846;42.654;23.314;2023-02-02T13:21:55;94267.91;;;23.61;45.15
31337;BME280;22846;42.654;23.314;2023-02-02T13:24:26;94275.53;;;23.66;45.13
31337;BME280;22846;42.654;23.314;2023-02-02T13:26:53;94272.47;;;23.64;45.06
31337;BME280;22846;42.654;23.314;2023-02-02T13:29:34;94268.25;;;23.63;45.33
31337;BME280;22846;42.654;23.314;2023-02-02T13:32:25;94275.66;;;23.62;45.36
31337;BME280;22846;42.654;23.314;2023-02-02T13:42:50;94279.06;;;23.54;44.91
31337;BME280;22846;42.654;23.314;2023-02-02T13:45:48;94277.53;;;23.53;45.31
31337;BME280;22846;42.654;23.314;2023-02-02T14:01:50;94280.66;;;23.64;44.64
31337;BME280;22846;42.654;23.314;2023-02-02T14:04:25;94283.38;;;23.64;45.20
31337;BME280;22846;42.654;23.314;2023-02-02T14:09:24;94266.22;;;23.88;44.55
31337;BME280;22846;42.654;23.314;2023-02-02T14:11:55;94266.56;;;24.11;44.28
31337;BME280;22846;42.654;23.314;2023-02-02T14:14:22;94262.63;;;24.34;43.94
31337;BME280;22846;42.654;23.314;2023-02-02T14:17:07;94258.66;;;24.47;43.21
31337;BME280;22846;42.654;23.314;2023-02-02T14:22:37;94257.16;;;24.77;43.04
31337;BME280;22846;42.654;23.314;2023-02-02T14:25:44;94266.78;;;24.90;42.93
31337;BME280;22846;42.654;23.314;2023-02-02T14:27:56;94274.88;;;25.02;42.69
31337;BME280;22846;42.654;23.314;2023-02-02T14:30:25;94265.53;;;25.12;42.06
31337;BME280;22846;42.654;23.314;2023-02-02T14:32:52;94266.91;;;25.17;42.25
31337;BME280;22846;42.654;23.314;2023-02-02T14:38:38;94283.97;;;25.30;41.93
31337;BME280;22846;42.654;23.314;2023-02-02T14:44:25;94324.28;;;25.38;41.62
31337;BME280;22846;42.654;23.314;2023-02-02T14:46:50;94350.28;;;25.43;41.80
31337;BME280;22846;42.654;23.314;2023-02-02T14:49:19;94374.78;;;25.46;41.35
31337;BME280;22846;42.654;23.314;2023-02-02T14:51:57;94395.31;;;25.51;41.37
31337;BME280;22846;42.654;23.314;2023-02-02T14:54:27;94398.66;;;25.55;41.33
31337;BME280;22846;42.654;23.314;2023-02-02T14:56:57;94416.94;;;25.58;41.25
31337;BME280;22846;42.654;23.314;2023-02-02T14:59:26;94432.59;;;25.57;41.39
31337;BME280;22846;42.654;23.314;2023-02-02T15:02:18;94446.56;;;25.59;40.98
31337;BME280;22846;42.654;23.314;2023-02-02T15:04:44;94456.00;;;25.58;40.97
31337;BME280;22846;42.654;23.314;2023-02-02T15:07:37;94462.38;;;25.55;41.15
31337;BME280;22846;42.654;23.314;2023-02-02T15:10:03;94480.47;;;25.53;41.27
31337;BME280;22846;42.654;23.314;2023-02-02T15:15:12;94483.75;;;25.48;41.36
31337;BME280;22846;42.654;23.314;2023-02-02T15:20:32;94504.59;;;25.45;41.65
31337;BME280;22846;42.654;23.314;2023-02-02T15:29:02;94546.97;;;25.41;41.39
31337;BME280;22846;42.654;23.314;2023-02-02T15:31:43;94510.25;;;25.29;41.27
31337;BME280;22846;42.654;23.314;2023-02-02T15:36:50;94534.47;;;25.40;41.29
31337;BME280;22846;42.654;23.314;2023-02-02T15:41:43;94529.00;;;25.40;41.44
31337;BME280;22846;42.654;23.314;2023-02-02T15:44:24;94539.50;;;25.41;41.32
31337;BME280;22846;42.654;23.314;2023-02-02T15:46:51;94541.50;;;25.41;41.68